createdAt,value
2019-05-11T00:01:41.576Z,3.90
2019-05-11T00:04:46.319Z,4.50
2019-05-11T00:07:51.432Z,3.83
2019-05-11T00:10:56.212Z,3.50
2019-05-11T00:14:01.564Z,3.70
2019-05-11T00:17:06.331Z,3.90
2019-05-11T00:20:11.766Z,3.80
2019-05-11T00:23:16.580Z,4.20
2019-05-11T00:26:21.582Z,4.20
2019-05-11T00:29:27.449Z,4.13
2019-05-11T00:32:32.620Z,4.03
2019-05-11T00:35:37.633Z,4.57
2019-05-11T00:38:42.425Z,4.77
2019-05-11T00:41:47.179Z,4.37
2019-05-11T00:44:52.040Z,4.30
2019-05-11T00:47:57.221Z,4.40
2019-05-11T00:51:01.961Z,4.10
2019-05-11T00:54:07.042Z,4.17
2019-05-11T00:57:11.840Z,4.30
2019-05-11T01:00:17.288Z,3.80
2019-05-11T01:03:22.653Z,3.97
2019-05-11T01:06:27.518Z,4.13
2019-05-11T01:09:32.321Z,4.17
2019-05-11T01:12:37.188Z,4.17
2019-05-11T01:15:42.029Z,4.17
2019-05-11T01:18:46.822Z,4.47
2019-05-11T01:21:51.680Z,4.73
2019-05-11T01:24:56.517Z,4.90
2019-05-11T01:28:01.372Z,4.93
2019-05-11T01:31:06.267Z,4.63
2019-05-11T01:34:11.093Z,4.73
2019-05-11T01:37:15.888Z,4.60
2019-05-11T01:40:20.971Z,4.50
2019-05-11T01:43:25.993Z,4.40
2019-05-11T01:46:30.721Z,4.70
2019-05-11T01:49:35.553Z,4.30
2019-05-11T01:52:40.745Z,4.20
2019-05-11T01:55:45.531Z,4.33
2019-05-11T01:58:50.278Z,3.90
2019-05-11T02:01:55.653Z,4.20
2019-05-11T02:05:38.422Z,4.00
2019-05-11T02:08:43.187Z,3.60
2019-05-11T02:11:47.968Z,4.17
2019-05-11T02:14:52.746Z,3.50
2019-05-11T02:17:57.502Z,3.97
2019-05-11T02:21:02.231Z,3.97
2019-05-11T02:24:07.173Z,4.53
2019-05-11T02:27:11.933Z,4.00
2019-05-11T02:30:18.562Z,3.87
2019-05-11T02:33:23.337Z,4.30
2019-05-11T02:36:28.402Z,4.50
2019-05-11T02:39:33.164Z,4.13
2019-05-11T02:42:38.321Z,3.97
2019-05-11T02:45:44.045Z,4.33
2019-05-11T02:48:48.802Z,4.47
2019-05-11T02:51:54.348Z,4.20
2019-05-11T02:55:01.535Z,3.80
2019-05-11T02:58:07.631Z,3.93
2019-05-11T03:01:12.666Z,4.13
2019-05-11T03:04:17.416Z,4.00
2019-05-11T03:07:22.486Z,4.20
2019-05-11T03:10:27.238Z,4.00
2019-05-11T03:13:32.284Z,3.63
2019-05-11T03:16:37.369Z,3.27
2019-05-11T03:19:42.147Z,3.80
2019-05-11T03:22:47.643Z,3.43
2019-05-11T03:25:52.452Z,3.23
2019-05-11T03:28:57.398Z,3.57
2019-05-11T03:32:02.162Z,3.50
2019-05-11T03:35:07.145Z,3.93
2019-05-11T03:38:12.339Z,3.70
2019-05-11T03:41:17.403Z,3.97
2019-05-11T03:44:22.806Z,4.50
2019-05-11T03:47:28.237Z,3.83
2019-05-11T03:50:33.330Z,4.17
2019-05-11T03:53:38.353Z,4.20
2019-05-11T03:56:43.153Z,3.93
2019-05-11T03:59:47.996Z,3.93
2019-05-11T04:02:52.725Z,4.03
2019-05-11T04:05:57.895Z,3.83
2019-05-11T04:09:04.601Z,3.43
2019-05-11T04:12:09.359Z,4.20
2019-05-11T04:15:14.337Z,3.60
2019-05-11T04:18:19.339Z,3.83
2019-05-11T04:21:24.450Z,3.43
2019-05-11T04:24:29.183Z,3.63
2019-05-11T04:27:34.319Z,2.90
2019-05-11T04:30:40.122Z,3.17
2019-05-11T04:33:45.846Z,2.80
2019-05-11T04:36:50.592Z,2.30
2019-05-11T04:39:55.645Z,2.20
2019-05-11T04:43:00.388Z,2.40
2019-05-11T04:46:05.227Z,2.47
2019-05-11T04:49:09.962Z,2.47
2019-05-11T04:52:15.036Z,2.60
2019-05-11T04:55:20.534Z,3.03
2019-05-11T04:58:25.292Z,2.80
2019-05-11T05:01:30.329Z,2.97
2019-05-11T05:04:35.191Z,2.67
2019-05-11T05:07:47.744Z,3.10
2019-05-11T05:10:46.768Z,2.93
2019-05-11T05:13:53.623Z,3.03
2019-05-11T05:16:58.361Z,3.10
2019-05-11T05:20:03.123Z,2.93
2019-05-11T05:23:07.894Z,3.23
2019-05-11T05:26:12.666Z,3.10
2019-05-11T05:29:18.269Z,3.30
2019-05-11T05:32:23.261Z,3.23
2019-05-11T05:35:28.239Z,3.03
2019-05-11T05:38:32.989Z,3.13
2019-05-11T05:41:38.805Z,2.87
2019-05-11T05:44:43.600Z,3.10
2019-05-11T05:47:48.649Z,2.80
2019-05-11T05:50:53.423Z,2.70
2019-05-11T05:53:58.424Z,2.80
2019-05-11T05:57:03.181Z,2.70
2019-05-11T06:00:09.746Z,2.60
2019-05-11T06:03:14.773Z,2.93
2019-05-11T06:06:19.643Z,2.83
2019-05-11T06:09:24.386Z,2.57
2019-05-11T06:12:29.497Z,2.83
2019-05-11T06:15:34.452Z,2.90
2019-05-11T06:18:39.477Z,2.90
2019-05-11T06:21:44.442Z,2.50
2019-05-11T06:24:49.366Z,2.80
2019-05-11T06:27:54.466Z,3.03
2019-05-11T06:30:59.865Z,2.63
2019-05-11T06:34:04.735Z,2.50
2019-05-11T06:37:09.544Z,2.50
2019-05-11T06:40:14.683Z,2.73
2019-05-11T06:43:20.181Z,2.50
2019-05-11T06:46:25.041Z,2.37
2019-05-11T06:49:30.148Z,2.73
2019-05-11T06:52:35.336Z,2.70
2019-05-11T06:55:40.167Z,2.50
2019-05-11T06:58:45.653Z,3.60
2019-05-11T07:01:50.624Z,2.97
2019-05-11T07:04:55.372Z,2.43
2019-05-11T07:08:00.219Z,4.00
2019-05-11T07:11:05.899Z,2.87
2019-05-11T07:14:20.702Z,1.97
2019-05-11T07:17:19.318Z,1.50
2019-05-11T07:20:24.181Z,1.77
2019-05-11T07:23:28.989Z,1.50
2019-05-11T07:26:34.125Z,1.50
2019-05-11T07:29:38.947Z,1.60
2019-05-11T07:32:43.795Z,1.50
2019-05-11T07:35:48.708Z,1.20
2019-05-11T07:38:54.916Z,1.20
2019-05-11T07:41:59.989Z,1.47
2019-05-11T07:45:05.505Z,1.30
2019-05-11T07:48:10.615Z,1.40
2019-05-11T07:51:18.087Z,1.43
2019-05-11T07:54:22.541Z,1.30
2019-05-11T07:57:28.915Z,1.40
2019-05-11T08:00:37.437Z,1.60
2019-05-11T08:03:41.434Z,1.10
2019-05-11T08:06:47.900Z,1.27
2019-05-11T08:09:52.823Z,1.27
2019-05-11T08:12:58.762Z,1.50
2019-05-11T08:16:04.203Z,1.20
2019-05-11T08:19:10.807Z,1.03
2019-05-11T08:22:15.754Z,1.13
2019-05-11T08:25:20.584Z,0.90
2019-05-11T08:28:25.772Z,1.10
2019-05-11T08:31:30.567Z,1.10
2019-05-11T08:34:35.630Z,1.00
2019-05-11T08:37:41.452Z,0.90
2019-05-11T08:40:48.473Z,0.90
2019-05-11T08:43:53.328Z,0.80
2019-05-11T08:46:58.525Z,1.00
2019-05-11T08:50:03.539Z,0.90
2019-05-11T08:53:08.683Z,0.90
2019-05-11T08:56:13.701Z,0.80
2019-05-11T08:59:18.887Z,1.00
2019-05-11T09:02:24.034Z,0.93
2019-05-11T09:05:29.209Z,0.77
2019-05-11T09:08:34.018Z,0.90
2019-05-11T09:11:39.853Z,0.80
2019-05-11T09:14:45.021Z,0.80
2019-05-11T09:17:50.125Z,1.27
2019-05-11T09:20:54.998Z,1.07
2019-05-11T09:24:00.153Z,0.90
2019-05-11T09:27:05.000Z,0.90
2019-05-11T09:30:10.246Z,0.90
2019-05-11T09:33:18.504Z,0.90
2019-05-11T09:36:22.005Z,0.60
2019-05-11T09:39:28.110Z,0.77
2019-05-11T09:42:33.086Z,0.73
2019-05-11T09:45:48.116Z,0.57
2019-05-11T09:48:48.394Z,0.60
2019-05-11T09:51:53.323Z,0.70
2019-05-11T09:54:58.247Z,0.80
2019-05-11T09:58:03.104Z,0.60
2019-05-11T10:01:08.948Z,0.57
2019-05-11T10:04:13.917Z,0.60
2019-05-11T10:07:19.015Z,0.50
2019-05-11T10:10:24.167Z,0.50
2019-05-11T10:13:29.125Z,0.60
2019-05-11T10:16:34.012Z,0.60
2019-05-11T10:19:39.653Z,0.60
2019-05-11T10:22:44.673Z,0.53
2019-05-11T10:25:49.490Z,0.40
2019-05-11T10:28:54.617Z,0.40
2019-05-11T10:31:59.802Z,0.50
2019-05-11T10:35:04.926Z,0.40
2019-05-11T10:38:10.076Z,0.40
2019-05-11T10:41:15.137Z,0.50
2019-05-11T10:44:20.360Z,0.47
2019-05-11T10:47:27.159Z,0.40
2019-05-11T10:50:32.673Z,0.50
2019-05-11T10:53:38.416Z,0.70
2019-05-11T10:56:43.414Z,0.57
2019-05-11T10:59:48.978Z,0.40
2019-05-11T11:02:53.913Z,0.43
2019-05-11T11:05:59.131Z,0.50
2019-05-11T11:09:05.521Z,0.50
2019-05-11T11:12:10.627Z,0.50
2019-05-11T11:15:18.144Z,0.50
2019-05-11T11:18:22.581Z,0.40
2019-05-11T11:21:27.977Z,0.70
2019-05-11T11:24:32.979Z,0.60
2019-05-11T11:27:38.195Z,0.70
2019-05-11T11:30:43.857Z,0.70
2019-05-11T11:33:49.203Z,0.60
2019-05-11T11:36:57.857Z,0.50
2019-05-11T11:40:02.037Z,0.70
2019-05-11T11:43:08.674Z,0.70
2019-05-11T11:46:13.964Z,0.70
2019-05-11T11:49:19.070Z,0.70
2019-05-11T11:52:23.928Z,0.67
2019-05-11T11:55:29.200Z,0.60
2019-05-11T11:58:34.021Z,0.70
2019-05-11T12:01:38.823Z,0.60
2019-05-11T12:04:43.647Z,0.60
2019-05-11T12:07:49.034Z,0.60
2019-05-11T12:10:54.988Z,0.50
2019-05-11T12:14:00.255Z,0.40
2019-05-11T12:17:08.697Z,0.47
2019-05-11T12:20:13.093Z,0.70
2019-05-11T12:23:18.516Z,0.40
2019-05-11T12:26:23.610Z,0.40
2019-05-11T12:29:28.645Z,0.40
2019-05-11T12:32:39.828Z,0.47
2019-05-11T12:35:44.698Z,0.47
2019-05-11T12:38:49.918Z,0.37
2019-05-11T12:41:55.086Z,0.30
2019-05-11T12:44:59.983Z,0.40
2019-05-11T12:48:05.163Z,0.40
2019-05-11T12:51:11.029Z,0.50
2019-05-11T12:54:16.064Z,0.50
2019-05-11T12:57:20.893Z,0.57
2019-05-11T13:00:30.453Z,0.63
2019-05-11T13:03:32.696Z,0.60
2019-05-11T13:06:38.559Z,0.70
2019-05-11T13:09:43.738Z,0.70
2019-05-11T13:12:49.676Z,1.20
2019-05-11T13:15:54.528Z,1.30
2019-05-11T13:18:59.555Z,1.90
2019-05-11T13:22:04.448Z,1.70
2019-05-11T13:25:09.554Z,1.93
2019-05-11T13:28:14.988Z,2.20
2019-05-11T13:31:20.128Z,2.27
2019-05-11T13:34:30.809Z,2.10
2019-05-11T13:37:33.396Z,1.63
2019-05-11T13:40:38.452Z,1.60
2019-05-11T13:43:43.266Z,1.50
2019-05-11T13:46:48.909Z,1.83
2019-05-11T13:49:53.646Z,1.47
2019-05-11T13:52:58.734Z,1.40
2019-05-11T13:56:03.534Z,1.40
2019-05-11T13:59:10.598Z,1.17
2019-05-11T14:02:17.903Z,1.10
2019-05-11T14:05:22.179Z,1.17
2019-05-11T14:08:27.751Z,1.30
2019-05-11T14:11:33.942Z,1.60
2019-05-11T14:14:39.335Z,1.40
2019-05-11T14:17:44.175Z,1.50
2019-05-11T14:20:48.971Z,1.60
2019-05-11T14:23:54.170Z,1.27
2019-05-11T14:26:59.333Z,1.37
2019-05-11T14:30:05.441Z,1.27
2019-05-11T14:33:10.729Z,1.90
2019-05-11T14:36:18.058Z,1.80
2019-05-11T14:39:22.346Z,2.03
2019-05-11T14:42:28.662Z,2.00
2019-05-11T14:45:33.794Z,2.00
2019-05-11T14:48:39.173Z,2.10
2019-05-11T14:51:45.078Z,2.30
2019-05-11T14:54:50.998Z,2.00
2019-05-11T14:57:57.665Z,2.00
2019-05-11T15:01:02.580Z,2.10
2019-05-11T15:04:09.080Z,1.60
2019-05-11T15:07:17.294Z,1.80
2019-05-11T15:10:22.125Z,1.40
2019-05-11T15:13:28.813Z,1.50
2019-05-11T15:16:33.481Z,1.60
2019-05-11T15:19:38.362Z,1.50
2019-05-11T15:22:45.113Z,1.37
2019-05-11T15:25:49.915Z,1.40
2019-05-11T15:28:54.789Z,1.20
2019-05-11T15:31:59.598Z,1.13
2019-05-11T15:35:04.626Z,1.20
2019-05-11T15:38:10.199Z,1.10
2019-05-11T15:41:17.491Z,1.13
2019-05-11T15:44:22.049Z,1.30
2019-05-11T15:47:28.350Z,1.10
2019-05-11T15:50:33.803Z,1.20
2019-05-11T15:53:38.587Z,1.50
2019-05-11T15:56:43.693Z,1.23
2019-05-11T15:59:48.799Z,1.67
2019-05-11T16:02:53.541Z,1.70
2019-05-11T16:05:58.574Z,1.47
2019-05-11T16:09:04.411Z,1.30
2019-05-11T16:12:09.228Z,1.30
2019-05-11T16:15:14.243Z,1.30
2019-05-11T16:18:19.654Z,1.17
2019-05-11T16:21:25.283Z,1.20
2019-05-11T16:24:30.575Z,0.87
2019-05-11T16:27:37.960Z,1.03
2019-05-11T16:30:42.539Z,1.20
2019-05-11T16:33:48.370Z,1.13
2019-05-11T16:36:53.631Z,0.97
2019-05-11T16:39:58.427Z,1.10
2019-05-11T16:43:03.449Z,1.20
2019-05-11T16:46:08.768Z,1.27
2019-05-11T16:49:26.115Z,1.40
2019-05-11T16:52:20.737Z,1.47
2019-05-11T16:55:25.575Z,1.27
2019-05-11T16:58:32.800Z,1.40
2019-05-11T17:01:38.196Z,1.50
2019-05-11T17:04:43.012Z,1.30
2019-05-11T17:07:53.955Z,1.60
2019-05-11T17:10:59.506Z,1.50
2019-05-11T17:14:04.538Z,1.73
2019-05-11T17:17:09.470Z,1.80
2019-05-11T17:20:14.783Z,2.07
2019-05-11T17:23:19.921Z,1.80
2019-05-11T17:26:24.992Z,1.87
2019-05-11T17:29:29.785Z,2.03
2019-05-11T17:32:35.214Z,2.60
2019-05-11T17:35:40.066Z,2.07
2019-05-11T17:38:44.905Z,2.50
2019-05-11T17:41:49.764Z,2.43
2019-05-11T17:44:54.563Z,2.40
2019-05-11T17:47:59.770Z,2.50
2019-05-11T17:51:18.360Z,2.43
2019-05-11T17:54:11.533Z,2.70
2019-05-11T17:57:17.639Z,2.70
2019-05-11T18:00:22.677Z,2.43
2019-05-11T18:03:27.967Z,2.73
2019-05-11T18:06:33.170Z,2.57
2019-05-11T18:09:38.119Z,2.90
2019-05-11T18:12:42.974Z,2.70
2019-05-11T18:15:49.363Z,3.10
2019-05-11T18:18:54.569Z,2.60
2019-05-11T18:22:00.161Z,2.70
2019-05-11T18:25:05.187Z,2.83
2019-05-11T18:28:10.008Z,3.27
2019-05-11T18:31:14.820Z,3.70
2019-05-11T18:34:20.158Z,3.20
2019-05-11T18:37:25.342Z,3.43
2019-05-11T18:40:32.273Z,3.37
2019-05-11T18:43:38.489Z,3.30
2019-05-11T18:46:43.458Z,2.80
2019-05-11T18:49:48.500Z,3.70
2019-05-11T18:52:53.306Z,3.47
2019-05-11T18:55:58.992Z,3.23
2019-05-11T18:59:04.057Z,3.10
2019-05-11T19:02:10.127Z,2.93
2019-05-11T19:05:18.041Z,3.13
2019-05-11T19:08:22.453Z,2.93
2019-05-11T19:11:28.959Z,3.17
2019-05-11T19:14:33.890Z,3.10
2019-05-11T19:17:38.772Z,2.90
2019-05-11T19:20:46.109Z,3.10
2019-05-11T19:23:50.532Z,2.93
2019-05-11T19:26:55.671Z,3.73
2019-05-11T19:30:00.833Z,3.30
2019-05-11T19:33:10.724Z,3.00
2019-05-11T19:36:12.431Z,3.03
2019-05-11T19:39:19.178Z,3.50
2019-05-11T19:42:23.984Z,3.30
2019-05-11T19:45:29.602Z,3.43
2019-05-11T19:48:35.560Z,2.87
2019-05-11T19:51:42.579Z,3.10
2019-05-11T19:54:48.799Z,2.40
2019-05-11T19:57:54.954Z,2.70
2019-05-11T20:00:59.882Z,2.67
2019-05-11T20:04:05.149Z,2.80
2019-05-11T20:07:09.995Z,2.70
2019-05-11T20:10:14.901Z,2.90
2019-05-11T20:13:19.883Z,3.10
2019-05-11T20:16:24.904Z,3.10
2019-05-11T20:19:29.688Z,3.57
2019-05-11T20:22:35.095Z,3.00
2019-05-11T20:25:40.055Z,3.13
2019-05-11T20:28:45.078Z,3.00
2019-05-11T20:31:49.898Z,3.00
2019-05-11T20:34:57.849Z,3.07
2019-05-11T20:38:03.640Z,3.00
2019-05-11T20:41:09.519Z,2.93
2019-05-11T20:44:14.360Z,3.10
2019-05-11T20:47:19.145Z,3.00
2019-05-11T20:50:24.240Z,3.27
2019-05-11T20:53:29.581Z,3.07
2019-05-11T20:56:34.976Z,3.23
2019-05-11T20:59:40.385Z,3.30
2019-05-11T21:02:45.276Z,3.40
2019-05-11T21:05:50.079Z,3.23
2019-05-11T21:08:54.822Z,3.03
2019-05-11T21:12:02.934Z,3.10
2019-05-11T21:15:07.459Z,3.33
2019-05-11T21:18:12.294Z,3.27
2019-05-11T21:21:17.084Z,3.70
2019-05-11T21:24:21.887Z,3.20
2019-05-11T21:27:28.699Z,3.27
2019-05-11T21:30:33.278Z,3.03
2019-05-11T21:33:38.351Z,3.20
2019-05-11T21:36:43.363Z,3.17
2019-05-11T21:39:48.417Z,3.07
2019-05-11T21:42:53.418Z,3.27
2019-05-11T21:46:01.309Z,3.30
2019-05-11T21:49:07.804Z,3.17
2019-05-11T21:52:12.951Z,3.10
2019-05-11T21:55:17.797Z,3.40
2019-05-11T21:58:22.790Z,3.13
2019-05-11T22:01:28.269Z,3.40
2019-05-11T22:04:33.033Z,3.50
2019-05-11T22:07:38.743Z,3.03
2019-05-11T22:10:44.588Z,2.83
2019-05-11T22:13:49.490Z,3.20
2019-05-11T22:16:55.269Z,3.33
2019-05-11T22:20:00.539Z,3.10
2019-05-11T22:23:05.316Z,3.57
2019-05-11T22:26:10.291Z,2.80
2019-05-11T22:29:15.129Z,2.93
2019-05-11T22:32:20.295Z,3.70
2019-05-11T22:35:25.098Z,3.37
2019-05-11T22:38:30.403Z,3.60
2019-05-11T22:41:39.350Z,2.83
2019-05-11T22:44:42.198Z,3.30
2019-05-11T22:47:48.110Z,3.63
2019-05-11T22:50:53.078Z,3.03
2019-05-11T22:53:59.116Z,3.20
2019-05-11T22:57:04.282Z,3.50
2019-05-11T23:00:10.291Z,4.20
2019-05-11T23:03:18.877Z,2.97
2019-05-11T23:06:24.125Z,3.47
2019-05-11T23:09:29.229Z,3.47
2019-05-11T23:12:34.395Z,3.30
2019-05-11T23:15:40.495Z,3.40
2019-05-11T23:18:47.677Z,3.20
2019-05-11T23:21:52.299Z,3.23
2019-05-11T23:24:58.795Z,3.47
2019-05-11T23:28:03.790Z,3.50
2019-05-11T23:31:09.076Z,3.50
2019-05-11T23:34:14.236Z,3.63
2019-05-11T23:37:19.063Z,3.57
2019-05-11T23:40:24.303Z,3.20
2019-05-11T23:43:30.069Z,3.33
2019-05-11T23:46:38.664Z,3.30
2019-05-11T23:49:43.495Z,2.70
2019-05-11T23:52:53.223Z,3.20
2019-05-11T23:55:55.001Z,3.27
2019-05-11T23:58:59.770Z,3.30
